createdAt,value
2023-04-15T00:00:52.605Z,2.83
2023-04-15T00:03:27.005Z,5.03
2023-04-15T00:06:01.934Z,3.80
2023-04-15T00:08:35.180Z,4.62
2023-04-15T00:11:08.349Z,3.72
2023-04-15T00:13:43.014Z,4.22
2023-04-15T00:16:17.170Z,4.08
2023-04-15T00:18:50.343Z,3.35
2023-04-15T00:21:24.311Z,5.45
2023-04-15T00:23:57.685Z,4.78
2023-04-15T00:26:31.105Z,4.25
2023-04-15T00:29:06.577Z,5.55
2023-04-15T00:31:42.589Z,6.87
2023-04-15T00:34:15.500Z,4.47
2023-04-15T00:36:49.137Z,5.20
2023-04-15T00:39:23.905Z,4.33
2023-04-15T00:41:57.718Z,5.72
2023-04-15T00:44:31.072Z,4.12
2023-04-15T00:47:04.402Z,4.90
2023-04-15T00:49:37.978Z,6.50
2023-04-15T00:52:11.193Z,5.83
2023-04-15T00:54:44.383Z,6.42
2023-04-15T00:57:17.650Z,5.10
2023-04-15T01:02:25.003Z,6.10
2023-04-15T01:04:59.170Z,6.92
2023-04-15T01:07:33.057Z,7.40
2023-04-15T01:10:09.144Z,5.55
2023-04-15T01:12:43.555Z,6.37
2023-04-15T01:15:16.692Z,7.33
2023-04-15T01:17:50.231Z,6.78
2023-04-15T01:20:23.835Z,8.68
2023-04-15T01:22:57.572Z,8.88
2023-04-15T01:25:35.149Z,6.72
2023-04-15T01:28:09.958Z,7.60
2023-04-15T01:30:43.779Z,5.65
2023-04-15T01:33:18.076Z,7.75
2023-04-15T01:35:52.016Z,9.58
2023-04-15T01:38:25.348Z,7.28
2023-04-15T01:40:59.593Z,8.78
2023-04-15T01:46:05.519Z,9.85
2023-04-15T01:48:38.673Z,8.77
2023-04-15T01:51:11.877Z,7.90
2023-04-15T01:53:44.782Z,6.65
2023-04-15T01:56:19.090Z,7.87
2023-04-15T01:58:52.230Z,8.18
2023-04-15T02:01:25.238Z,7.62
2023-04-15T02:06:32.074Z,8.90
2023-04-15T02:09:05.715Z,10.60
2023-04-15T02:11:39.663Z,8.05
2023-04-15T02:14:13.108Z,10.00
2023-04-15T02:16:46.814Z,6.78
2023-04-15T02:21:53.585Z,11.22
2023-04-15T02:24:26.895Z,8.88
2023-04-15T02:27:00.188Z,9.83
2023-04-15T02:29:34.635Z,9.87
2023-04-15T02:32:08.520Z,10.03
2023-04-15T02:34:43.210Z,10.58
2023-04-15T02:39:50.197Z,10.70
2023-04-15T02:42:25.857Z,9.83
2023-04-15T02:44:58.987Z,8.98
2023-04-15T02:47:34.131Z,9.23
2023-04-15T02:50:11.427Z,12.13
2023-04-15T02:52:46.199Z,8.63
2023-04-15T02:55:19.723Z,7.60
2023-04-15T02:57:53.091Z,7.30
2023-04-15T03:00:26.674Z,9.47
2023-04-15T03:03:04.803Z,9.58
2023-04-15T03:05:39.531Z,8.00
2023-04-15T03:08:15.319Z,10.28
2023-04-15T03:13:21.753Z,7.70
2023-04-15T03:15:54.887Z,7.75
2023-04-15T03:18:29.679Z,9.83
2023-04-15T03:21:04.544Z,10.45
2023-04-15T03:23:39.996Z,8.25
2023-04-15T03:28:47.497Z,10.58
2023-04-15T03:31:21.915Z,8.70
2023-04-15T03:33:55.262Z,8.70
2023-04-15T03:36:32.282Z,12.95
2023-04-15T03:39:05.913Z,7.95
2023-04-15T03:41:38.913Z,10.58
2023-04-15T03:44:12.652Z,11.45
2023-04-15T03:46:46.550Z,10.10
2023-04-15T03:49:20.252Z,10.05
2023-04-15T03:51:53.718Z,10.88
2023-04-15T03:54:28.285Z,10.28
2023-04-15T03:57:01.637Z,10.25
2023-04-15T03:59:35.075Z,14.10
2023-04-15T04:02:08.177Z,9.33
2023-04-15T04:04:41.433Z,11.07
2023-04-15T04:07:19.300Z,12.93
2023-04-15T04:09:52.359Z,11.18
2023-04-15T04:12:25.270Z,12.68
2023-04-15T04:14:58.939Z,11.08
2023-04-15T04:17:32.096Z,10.68
2023-04-15T04:20:06.045Z,12.20
2023-04-15T04:25:14.806Z,13.20
2023-04-15T04:27:48.034Z,9.95
2023-04-15T04:30:21.878Z,8.87
2023-04-15T04:32:56.017Z,9.70
2023-04-15T04:35:29.659Z,10.75
2023-04-15T04:38:03.350Z,8.48
2023-04-15T04:40:37.190Z,9.03
2023-04-15T04:43:10.292Z,5.70
2023-04-15T04:45:43.896Z,5.37
2023-04-15T04:48:17.627Z,6.25
2023-04-15T04:50:50.880Z,5.25
2023-04-15T04:53:24.888Z,5.08
2023-04-15T04:55:58.621Z,9.85
2023-04-15T04:58:31.980Z,9.80
2023-04-15T05:01:05.781Z,9.33
2023-04-15T05:03:39.211Z,10.10
2023-04-15T05:06:12.661Z,8.50
2023-04-15T05:08:47.565Z,12.43
2023-04-15T05:11:20.699Z,9.10
2023-04-15T05:13:54.125Z,8.55
2023-04-15T05:16:27.354Z,6.83
2023-04-15T05:21:34.722Z,8.30
2023-04-15T05:24:08.275Z,6.45
2023-04-15T05:26:43.000Z,3.92
2023-04-15T05:29:16.451Z,7.75
2023-04-15T05:31:49.611Z,6.85
2023-04-15T05:34:23.185Z,8.48
2023-04-15T05:36:56.430Z,5.03
2023-04-15T05:39:29.488Z,3.85
2023-04-15T05:42:02.435Z,6.10
2023-04-15T05:44:36.460Z,5.70
2023-04-15T05:47:10.645Z,9.25
2023-04-15T05:49:43.974Z,11.03
2023-04-15T05:52:17.231Z,8.60
2023-04-15T05:54:51.026Z,38.02
2023-04-15T05:57:24.720Z,31.33
2023-04-15T05:59:58.013Z,23.73
2023-04-15T06:02:31.977Z,12.98
2023-04-15T06:05:07.899Z,13.68
2023-04-15T06:07:41.309Z,6.97
2023-04-15T06:10:14.298Z,10.82
2023-04-15T06:12:48.343Z,6.15
2023-04-15T06:15:21.439Z,8.18
2023-04-15T06:17:54.679Z,6.87
2023-04-15T06:20:28.266Z,6.25
2023-04-15T06:23:01.834Z,7.25
2023-04-15T06:25:35.076Z,11.80
2023-04-15T06:28:08.593Z,11.40
2023-04-15T06:30:41.555Z,10.95
2023-04-15T06:33:15.365Z,10.85
2023-04-15T06:35:50.075Z,15.15
2023-04-15T06:38:22.961Z,12.05
2023-04-15T06:40:56.480Z,12.30
2023-04-15T06:43:29.988Z,9.05
2023-04-15T06:46:03.145Z,10.75
2023-04-15T06:48:36.411Z,10.15
2023-04-15T06:51:09.741Z,10.00
2023-04-15T06:53:44.248Z,12.23
2023-04-15T06:58:48.806Z,13.00
2023-04-15T07:01:22.810Z,10.93
2023-04-15T07:03:55.934Z,11.22
2023-04-15T07:06:29.117Z,12.88
2023-04-15T07:09:04.957Z,10.63
2023-04-15T07:11:38.602Z,11.97
2023-04-15T07:14:11.919Z,10.78
2023-04-15T07:16:44.882Z,11.15
2023-04-15T07:19:18.601Z,9.25
2023-04-15T07:21:53.121Z,8.50
2023-04-15T07:24:27.159Z,9.18
2023-04-15T07:27:01.420Z,10.50
2023-04-15T07:29:34.742Z,8.93
2023-04-15T07:32:08.175Z,10.48
2023-04-15T07:34:42.537Z,14.25
2023-04-15T07:37:15.924Z,16.10
2023-04-15T07:39:49.466Z,15.03
2023-04-15T07:42:23.088Z,13.98
2023-04-15T07:44:57.409Z,14.70
2023-04-15T07:47:30.321Z,14.65
2023-04-15T07:50:03.439Z,12.13
2023-04-15T07:52:39.489Z,19.02
2023-04-15T07:55:13.139Z,13.62
2023-04-15T07:57:47.804Z,9.80
2023-04-15T08:00:21.084Z,10.53
2023-04-15T08:02:54.404Z,7.90
2023-04-15T08:05:28.000Z,13.32
2023-04-15T08:08:01.684Z,7.47
2023-04-15T08:10:36.054Z,8.20
2023-04-15T08:13:09.419Z,14.65
2023-04-15T08:15:44.109Z,15.38
2023-04-15T08:18:17.587Z,13.03
2023-04-15T08:20:51.584Z,12.78
2023-04-15T08:23:24.890Z,12.75
2023-04-15T08:25:58.915Z,14.07
2023-04-15T08:28:33.167Z,12.33
2023-04-15T08:31:07.733Z,11.20
2023-04-15T08:33:40.614Z,20.65
2023-04-15T08:36:14.434Z,14.47
2023-04-15T08:38:48.088Z,9.90
2023-04-15T08:41:26.571Z,9.00
2023-04-15T08:44:05.121Z,11.85
2023-04-15T08:46:38.322Z,17.00
2023-04-15T08:49:13.800Z,10.85
2023-04-15T08:51:48.194Z,9.95
2023-04-15T08:54:21.736Z,17.12
2023-04-15T08:56:55.221Z,13.00
2023-04-15T08:59:28.221Z,12.00
2023-04-15T09:02:02.116Z,10.30
2023-04-15T09:04:35.764Z,13.88
2023-04-15T09:07:08.831Z,10.80
2023-04-15T09:09:42.547Z,15.55
2023-04-15T09:12:17.318Z,12.85
2023-04-15T09:14:51.220Z,12.75
2023-04-15T09:17:25.907Z,13.38
2023-04-15T09:20:16.516Z,18.70
2023-04-15T09:22:51.455Z,18.37
2023-04-15T09:25:28.633Z,12.18
2023-04-15T09:28:03.489Z,18.15
2023-04-15T09:30:37.007Z,13.22
2023-04-15T09:33:11.173Z,18.85
2023-04-15T09:35:44.500Z,20.92
2023-04-15T09:38:17.673Z,17.30
2023-04-15T09:40:51.167Z,15.78
2023-04-15T09:43:26.349Z,17.73
2023-04-15T09:45:59.411Z,16.52
2023-04-15T09:48:32.316Z,18.73
2023-04-15T09:51:05.792Z,23.47
2023-04-15T09:53:39.604Z,22.02
2023-04-15T09:56:13.209Z,25.43
2023-04-15T09:58:47.017Z,21.30
2023-04-15T10:01:20.126Z,25.70
2023-04-15T10:03:53.636Z,26.68
2023-04-15T10:06:30.795Z,16.70
2023-04-15T10:09:04.644Z,15.38
2023-04-15T10:14:11.443Z,17.30
2023-04-15T10:16:46.313Z,16.37
2023-04-15T10:19:20.951Z,16.82
2023-04-15T10:21:54.005Z,15.40
2023-04-15T10:24:27.367Z,17.80
2023-04-15T10:27:05.707Z,18.15
2023-04-15T10:29:39.054Z,14.65
2023-04-15T10:32:12.372Z,14.80
2023-04-15T10:34:46.929Z,12.58
2023-04-15T10:37:24.950Z,12.53
2023-04-15T10:39:58.011Z,20.30
2023-04-15T10:42:38.173Z,15.98
2023-04-15T10:45:16.052Z,16.73
2023-04-15T10:47:55.157Z,13.03
2023-04-15T10:50:32.950Z,19.05
2023-04-15T10:53:06.779Z,12.28
2023-04-15T10:55:40.019Z,15.25
2023-04-15T10:58:13.914Z,17.02
2023-04-15T11:00:56.181Z,13.53
2023-04-15T11:03:44.424Z,13.08
2023-04-15T11:06:17.580Z,17.20
2023-04-15T11:09:01.899Z,14.00
2023-04-15T11:12:12.246Z,10.58
2023-04-15T11:14:48.285Z,15.13
2023-04-15T11:17:31.501Z,10.48
2023-04-15T11:20:06.441Z,21.02
2023-04-15T11:22:39.716Z,17.90
2023-04-15T11:25:12.952Z,18.33
2023-04-15T11:27:47.953Z,16.03
2023-04-15T11:30:23.779Z,20.32
2023-04-15T11:33:00.390Z,17.05
2023-04-15T11:35:34.788Z,16.27
2023-04-15T11:40:46.118Z,14.63
2023-04-15T11:43:22.010Z,19.95
2023-04-15T11:46:02.415Z,22.05
2023-04-15T11:48:37.770Z,18.65
2023-04-15T11:51:10.933Z,23.60
2023-04-15T11:53:52.295Z,19.50
2023-04-15T11:56:28.606Z,15.35
2023-04-15T11:59:02.468Z,19.25
2023-04-15T12:01:39.590Z,19.50
2023-04-15T12:04:15.812Z,21.02
2023-04-15T12:06:49.176Z,25.40
2023-04-15T12:09:23.071Z,22.40
2023-04-15T12:11:59.294Z,19.27
2023-04-15T12:14:33.658Z,29.37
2023-04-15T12:19:45.801Z,29.80
2023-04-15T12:22:20.810Z,19.85
2023-04-15T12:24:58.044Z,21.12
2023-04-15T12:27:30.862Z,20.27
2023-04-15T12:30:08.405Z,15.13
2023-04-15T12:32:43.567Z,10.63
2023-04-15T12:35:19.233Z,14.80
2023-04-15T12:37:52.996Z,12.55
2023-04-15T12:40:27.532Z,26.07
2023-04-15T12:43:00.686Z,16.95
2023-04-15T12:45:34.094Z,20.00
2023-04-15T12:48:09.469Z,10.63
2023-04-15T12:50:44.411Z,13.83
2023-04-15T12:53:17.824Z,16.48
2023-04-15T12:55:50.871Z,12.75
2023-04-15T12:58:24.004Z,17.55
2023-04-15T13:00:57.529Z,25.15
2023-04-15T13:03:30.415Z,36.53
2023-04-15T13:06:05.291Z,30.40
2023-04-15T13:11:12.876Z,39.42
2023-04-15T13:13:45.924Z,32.20
2023-04-15T13:16:19.741Z,38.33
2023-04-15T13:18:52.960Z,32.90
2023-04-15T13:21:27.521Z,25.90
2023-04-15T13:24:00.460Z,29.57
2023-04-15T13:26:34.027Z,17.50
2023-04-15T13:29:08.236Z,21.52
2023-04-15T13:31:41.348Z,17.77
2023-04-15T13:34:14.482Z,45.90
2023-04-15T13:36:48.303Z,21.63
2023-04-15T13:39:21.818Z,34.88
2023-04-15T13:41:54.617Z,19.92
2023-04-15T13:44:27.810Z,10.78
2023-04-15T13:47:01.406Z,10.53
2023-04-15T13:49:34.363Z,10.30
2023-04-15T13:52:07.570Z,15.48
2023-04-15T13:54:40.878Z,11.53
2023-04-15T13:57:13.909Z,13.62
2023-04-15T13:59:47.952Z,10.13
2023-04-15T14:02:23.660Z,10.30
2023-04-15T14:04:56.456Z,10.38
2023-04-15T14:07:31.400Z,13.05
2023-04-15T14:10:04.764Z,18.23
2023-04-15T14:12:38.359Z,21.62
2023-04-15T14:15:11.885Z,11.90
2023-04-15T14:17:44.953Z,14.38
2023-04-15T14:20:18.668Z,12.70
2023-04-15T14:22:52.256Z,12.50
2023-04-15T14:25:33.396Z,10.08
2023-04-15T14:27:59.792Z,11.05
2023-04-15T14:30:33.170Z,18.65
2023-04-15T14:33:06.411Z,16.60
2023-04-15T14:35:39.738Z,16.90
2023-04-15T14:38:13.183Z,14.87
2023-04-15T14:40:46.390Z,8.73
2023-04-15T14:43:20.021Z,10.70
2023-04-15T14:45:53.134Z,16.48
2023-04-15T14:48:27.108Z,14.05
2023-04-15T14:51:01.044Z,18.15
2023-04-15T14:53:34.396Z,16.50
2023-04-15T14:56:08.264Z,17.77
2023-04-15T14:58:41.345Z,15.90
2023-04-15T15:01:15.263Z,15.20
2023-04-15T15:03:49.465Z,15.08
2023-04-15T15:08:56.268Z,10.70
2023-04-15T15:11:30.079Z,15.18
2023-04-15T15:14:03.148Z,11.25
2023-04-15T15:16:36.363Z,26.05
2023-04-15T15:19:09.279Z,9.20
2023-04-15T15:21:42.561Z,11.80
2023-04-15T15:24:15.679Z,10.65
2023-04-15T15:26:48.781Z,8.38
2023-04-15T15:29:21.965Z,11.15
2023-04-15T15:31:54.703Z,16.07
2023-04-15T15:34:28.476Z,12.85
2023-04-15T15:37:02.395Z,13.30
2023-04-15T15:39:37.111Z,16.37
2023-04-15T15:42:11.672Z,21.55
2023-04-15T15:47:21.308Z,13.85
2023-04-15T15:49:54.905Z,15.45
2023-04-15T15:52:27.806Z,10.28
2023-04-15T15:55:01.095Z,12.00
2023-04-15T15:57:34.244Z,13.43
2023-04-15T16:00:12.171Z,9.75
2023-04-15T16:05:17.915Z,12.18
2023-04-15T16:07:51.147Z,12.10
2023-04-15T16:10:24.121Z,12.05
2023-04-15T16:12:57.400Z,11.88
2023-04-15T16:15:31.115Z,14.00
2023-04-15T16:18:04.331Z,31.80
2023-04-15T16:20:37.968Z,18.02
2023-04-15T16:23:18.240Z,14.15
2023-04-15T16:25:52.411Z,14.95
2023-04-15T16:28:26.857Z,18.35
2023-04-15T16:31:00.282Z,10.55
2023-04-15T16:36:07.124Z,13.60
2023-04-15T16:41:12.609Z,15.05
2023-04-15T16:43:46.203Z,12.65
2023-04-15T16:46:19.350Z,18.67
2023-04-15T16:48:52.433Z,11.88
2023-04-15T16:51:26.235Z,16.12
2023-04-15T16:53:59.300Z,19.85
2023-04-15T16:56:32.402Z,18.75
2023-04-15T16:59:05.437Z,16.95
2023-04-15T17:01:40.480Z,15.98
2023-04-15T17:04:13.649Z,23.57
2023-04-15T17:06:48.243Z,19.10
2023-04-15T17:09:22.694Z,20.48
2023-04-15T17:11:56.385Z,15.53
2023-04-15T17:14:30.208Z,16.07
2023-04-15T17:17:04.182Z,17.45
2023-04-15T17:19:38.051Z,21.95
2023-04-15T17:22:11.302Z,18.73
2023-04-15T17:24:44.259Z,12.70
2023-04-15T17:27:17.553Z,14.65
2023-04-15T17:29:50.398Z,14.20
2023-04-15T17:32:23.754Z,13.40
2023-04-15T17:34:56.662Z,13.18
2023-04-15T17:37:29.879Z,12.63
2023-04-15T17:40:03.136Z,12.82
2023-04-15T17:42:36.877Z,21.07
2023-04-15T17:45:11.022Z,13.95
2023-04-15T17:47:44.290Z,11.33
2023-04-15T17:50:17.678Z,14.60
2023-04-15T17:52:51.988Z,12.03
2023-04-15T17:55:25.268Z,16.95
2023-04-15T17:57:58.272Z,11.18
2023-04-15T18:00:31.259Z,12.18
2023-04-15T18:03:04.711Z,11.80
2023-04-15T18:05:37.973Z,9.93
2023-04-15T18:08:11.348Z,13.55
2023-04-15T18:10:44.099Z,16.23
2023-04-15T18:13:17.031Z,12.60
2023-04-15T18:15:51.518Z,18.30
2023-04-15T18:20:56.343Z,16.48
2023-04-15T18:23:30.108Z,40.78
2023-04-15T18:26:03.837Z,15.65
2023-04-15T18:28:38.252Z,17.50
2023-04-15T18:31:11.739Z,17.50
2023-04-15T18:33:45.050Z,14.70
2023-04-15T18:36:18.320Z,14.47
2023-04-15T18:38:51.732Z,20.40
2023-04-15T18:41:26.417Z,23.27
2023-04-15T18:44:00.289Z,18.57
2023-04-15T18:46:33.524Z,16.67
2023-04-15T18:49:07.098Z,9.95
2023-04-15T18:51:42.010Z,11.03
2023-04-15T18:54:15.381Z,18.52
2023-04-15T18:56:48.824Z,15.18
2023-04-15T18:59:29.497Z,11.80
2023-04-15T19:01:58.878Z,23.18
2023-04-15T19:04:31.939Z,16.80
2023-04-15T19:07:05.225Z,17.53
2023-04-15T19:09:38.450Z,18.55
2023-04-15T19:12:11.440Z,18.02
2023-04-15T19:14:45.987Z,17.95
2023-04-15T19:17:19.364Z,19.37
2023-04-15T19:19:52.551Z,17.67
2023-04-15T19:22:25.929Z,24.03
2023-04-15T19:24:58.854Z,17.07
2023-04-15T19:27:32.015Z,19.95
2023-04-15T19:30:05.959Z,19.48
2023-04-15T19:32:40.464Z,26.50
2023-04-15T19:35:13.746Z,25.72
2023-04-15T19:37:48.129Z,15.90
2023-04-15T19:40:21.119Z,14.50
2023-04-15T19:42:54.126Z,16.67
2023-04-15T19:45:27.345Z,14.43
2023-04-15T19:48:00.431Z,15.68
2023-04-15T19:50:34.357Z,14.73
2023-04-15T19:53:07.340Z,12.55
2023-04-15T19:55:41.133Z,16.90
2023-04-15T19:58:14.205Z,8.23
2023-04-15T20:00:47.636Z,13.20
2023-04-15T20:03:21.119Z,18.40
2023-04-15T20:05:54.434Z,13.78
2023-04-15T20:08:27.613Z,10.48
2023-04-15T20:11:01.867Z,13.90
2023-04-15T20:13:35.022Z,12.95
2023-04-15T20:16:08.049Z,20.75
2023-04-15T20:18:41.715Z,17.35
2023-04-15T20:21:14.622Z,15.53
2023-04-15T20:23:47.669Z,10.15
2023-04-15T20:26:21.825Z,13.43
2023-04-15T20:28:55.823Z,9.50
2023-04-15T20:31:29.055Z,13.58
2023-04-15T20:34:02.016Z,15.78
2023-04-15T20:36:35.990Z,11.08
2023-04-15T20:39:08.951Z,9.55
2023-04-15T20:41:41.912Z,9.53
2023-04-15T20:44:15.111Z,11.05
2023-04-15T20:46:48.179Z,8.58
2023-04-15T20:49:21.276Z,21.65
2023-04-15T20:51:54.229Z,16.25
2023-04-15T20:54:27.192Z,11.93
2023-04-15T20:57:01.730Z,11.18
2023-04-15T20:59:35.110Z,14.30
2023-04-15T21:04:41.820Z,11.28
2023-04-15T21:07:15.289Z,13.25
2023-04-15T21:09:49.572Z,12.05
2023-04-15T21:12:22.731Z,14.38
2023-04-15T21:14:55.929Z,13.68
2023-04-15T21:17:29.041Z,18.85
2023-04-15T21:20:02.537Z,16.20
2023-04-15T21:22:36.173Z,16.52
2023-04-15T21:25:10.262Z,14.33
2023-04-15T21:27:43.708Z,12.23
2023-04-15T21:30:16.603Z,15.23
2023-04-15T21:32:49.770Z,17.00
2023-04-15T21:35:23.112Z,23.02
2023-04-15T21:37:56.290Z,21.40
2023-04-15T21:40:29.432Z,16.35
2023-04-15T21:43:02.417Z,13.22
2023-04-15T21:45:36.821Z,16.93
2023-04-15T21:48:09.692Z,14.20
2023-04-15T21:50:43.330Z,14.07
2023-04-15T21:53:16.755Z,17.85
2023-04-15T21:55:49.562Z,17.85
2023-04-15T21:58:22.801Z,12.73
2023-04-15T22:01:00.272Z,14.75
2023-04-15T22:03:36.028Z,24.05
2023-04-15T22:06:09.157Z,12.82
2023-04-15T22:08:54.925Z,16.42
2023-04-15T22:11:26.618Z,15.75
2023-04-15T22:14:01.033Z,10.45
2023-04-15T22:16:35.634Z,18.30
2023-04-15T22:19:08.589Z,23.80
2023-04-15T22:21:41.783Z,11.63
2023-04-15T22:24:38.868Z,15.08
2023-04-15T22:26:49.676Z,25.77
2023-04-15T22:29:23.449Z,21.50
2023-04-15T22:31:56.650Z,13.50
2023-04-15T22:34:29.531Z,14.50
2023-04-15T22:37:02.610Z,12.82
2023-04-15T22:39:35.982Z,15.93
2023-04-15T22:42:08.985Z,11.63
2023-04-15T22:44:42.083Z,17.60
2023-04-15T22:47:14.963Z,16.82
2023-04-15T22:49:47.964Z,14.58
2023-04-15T22:52:30.025Z,24.87
2023-04-15T22:54:56.205Z,15.25
2023-04-15T22:57:30.767Z,15.30
2023-04-15T23:00:04.665Z,16.80
2023-04-15T23:02:37.922Z,17.02
2023-04-15T23:05:12.952Z,12.95
2023-04-15T23:07:46.813Z,12.55
2023-04-15T23:10:20.395Z,12.25
2023-04-15T23:12:53.590Z,12.60
2023-04-15T23:15:26.904Z,12.65
2023-04-15T23:18:00.785Z,15.83
2023-04-15T23:20:34.216Z,13.90
2023-04-15T23:23:07.504Z,14.03
2023-04-15T23:25:40.585Z,11.57
2023-04-15T23:28:13.581Z,11.15
2023-04-15T23:30:46.815Z,10.55
2023-04-15T23:33:20.829Z,13.65
2023-04-15T23:35:53.754Z,13.08
2023-04-15T23:38:26.908Z,14.23
2023-04-15T23:41:00.773Z,11.83
2023-04-15T23:43:34.114Z,12.68
2023-04-15T23:46:07.127Z,13.65
2023-04-15T23:48:42.112Z,12.25
2023-04-15T23:51:15.014Z,18.45
2023-04-15T23:53:48.061Z,18.70
2023-04-15T23:56:21.296Z,14.07
2023-04-15T23:58:54.247Z,17.45
